Time;durP1;ratioP1;P1;durP2;ratioP2;P2;SDS_P1;SDS_P2;PMS_P1;PMS_P2;Temp;Humidity;BMP_temperature;BMP_pressure;BME280_temperature;BME280_humidity;BME280_pressure;Samples;Min_cycle;Max_cycle;Signal;HPM_P1;HPM_P2
2023/01/09 00:01:40;;;;;;;42.92;27.70;;;5.90;67.10;;;;;;6051843;23;114480;-83
2023/01/09 00:04:10;;;;;;;47.95;27.00;;;5.90;67.20;;;;;;6052354;23;115054;-82
2023/01/09 00:06:42;;;;;;;42.22;27.55;;;5.90;67.20;;;;;;6027816;23;118417;-83
2023/01/09 00:09:09;;;;;;;45.38;28.30;;;5.90;67.30;;;;;;6028516;23;114518;-82
2023/01/09 00:11:37;;;;;;;45.05;27.63;;;5.90;67.20;;;;;;6051860;23;114543;-83
2023/01/09 00:14:15;;;;;;;;;;;5.90;67.20;;;;;;6029141;23;115065;-83
2023/01/09 00:16:42;;;;;;;39.67;24.25;;;5.80;66.70;;;;;;6026553;23;114828;-83
2023/01/09 00:19:10;;;;;;;38.97;25.23;;;5.70;67.30;;;;;;6027521;23;115082;-83
2023/01/09 00:21:37;;;;;;;38.88;24.48;;;5.70;67.30;;;;;;6004694;23;114600;-83
2023/01/09 00:24:06;;;;;;;37.60;24.50;;;5.70;67.20;;;;;;6050582;23;115474;-83
2023/01/09 00:26:36;;;;;;;44.50;25.65;;;5.70;67.20;;;;;;6050376;23;115876;-83
2023/01/09 00:29:05;;;;;;;39.38;25.25;;;5.70;67.10;;;;;;5981736;23;116257;-82
2023/01/09 00:31:32;;;;;;;39.10;24.00;;;5.70;67.20;;;;;;6053417;23;114580;-83
2023/01/09 00:34:05;;;;;;;35.50;23.90;;;5.70;67.30;;;;;;6050792;23;115513;-82
2023/01/09 00:36:32;;;;;;;39.55;24.67;;;5.60;67.40;;;;;;6027797;23;115175;-82
2023/01/09 00:38:59;;;;;;;36.85;24.67;;;5.60;67.50;;;;;;6059509;23;114187;-82
2023/01/09 00:41:34;;;;;;;35.70;23.40;;;5.60;67.40;;;;;;6068780;23;114413;-82
2023/01/09 00:44:10;;;;;;;36.88;24.00;;;5.60;67.50;;;;;;6027787;23;115001;-82
2023/01/09 00:46:40;;;;;;;36.50;23.25;;;5.50;67.60;;;;;;6075596;23;115899;-81
2023/01/09 00:49:08;;;;;;;39.03;25.13;;;5.50;67.70;;;;;;6053465;23;114350;-82
2023/01/09 00:51:35;;;;;;;36.13;24.45;;;5.50;67.50;;;;;;6052328;23;114638;-81
2023/01/09 00:54:02;;;;;;;37.90;25.13;;;5.50;67.70;;;;;;6026750;23;118345;-82
2023/01/09 00:56:30;;;;;;;39.65;25.13;;;5.40;67.80;;;;;;6051131;23;114693;-81
2023/01/09 00:58:57;;;;;;;38.05;24.65;;;5.40;67.80;;;;;;6051782;23;114509;-82
2023/01/09 01:01:24;;;;;;;40.83;25.27;;;5.40;67.70;;;;;;6028297;23;114379;-82
2023/01/09 01:03:51;;;;;;;42.40;26.25;;;5.40;67.70;;;;;;6052134;23;115494;-82
2023/01/09 01:09:10;;;;;;;37.22;24.20;;;5.30;67.80;;;;;;6031889;23;114476;-82
2023/01/09 01:11:38;;;;;;;39.45;26.98;;;5.20;67.90;;;;;;6052590;23;114515;-82
2023/01/09 01:14:05;;;;;;;38.45;24.13;;;5.20;67.80;;;;;;6051625;23;114944;-81
2023/01/09 01:16:32;;;;;;;39.10;24.30;;;5.20;67.80;;;;;;6049481;23;115867;-81
2023/01/09 01:18:59;;;;;;;38.92;25.50;;;5.20;67.90;;;;;;6050955;23;114738;-81
2023/01/09 01:21:27;;;;;;;41.55;25.38;;;5.20;68.10;;;;;;6051267;23;114483;-83
2023/01/09 01:23:55;;;;;;;41.70;27.92;;;5.20;68.00;;;;;;6026009;23;115108;-81
2023/01/09 01:26:22;;;;;;;38.13;25.58;;;5.10;68.10;;;;;;6049705;23;114781;-82
2023/01/09 01:28:49;;;;;;;41.53;25.40;;;5.10;68.30;;;;;;6075605;23;114383;-82
2023/01/09 01:31:17;;;;;;;42.35;26.85;;;5.10;68.20;;;;;;6052575;23;114471;-82
2023/01/09 01:33:45;;;;;;;41.92;26.08;;;5.10;68.30;;;;;;6049375;23;115433;-82
2023/01/09 01:36:15;;;;;;;38.10;23.20;;;5.10;68.20;;;;;;6002141;23;114918;-82
2023/01/09 01:38:43;;;;;;;36.90;24.15;;;5.10;68.50;;;;;;6052582;23;114917;-82
2023/01/09 01:41:10;;;;;;;38.22;23.20;;;5.10;68.40;;;;;;6027260;23;114688;-82
2023/01/09 01:43:53;;;;;;;36.03;22.13;;;5.10;68.40;;;;;;6074168;23;118026;-82
2023/01/09 01:46:20;;;;;;;38.50;23.58;;;5.10;68.40;;;;;;6026292;23;114652;-83
2023/01/09 01:48:49;;;;;;;33.33;21.70;;;5.00;68.50;;;;;;6051141;23;114581;-82
2023/01/09 01:51:17;;;;;;;37.78;22.85;;;5.10;68.70;;;;;;5979880;23;115097;-82
2023/01/09 01:53:48;;;;;;;35.50;22.70;;;5.10;68.60;;;;;;6050160;23;115373;-82
2023/01/09 01:56:44;;;;;;;36.53;23.15;;;5.10;68.80;;;;;;6002945;23;115226;-82
2023/01/09 01:59:35;;;;;;;31.33;20.00;;;5.10;68.70;;;;;;6028905;23;115854;-83
2023/01/09 02:02:03;;;;;;;27.88;16.15;;;5.20;68.80;;;;;;6050997;23;114748;-82
2023/01/09 02:04:32;;;;;;;23.80;14.88;;;5.10;68.70;;;;;;6025861;23;115660;-83
2023/01/09 02:07:01;;;;;;;24.90;14.98;;;5.20;68.90;;;;;;5979005;23;115469;-83
2023/01/09 02:09:29;;;;;;;22.58;14.80;;;5.20;69.00;;;;;;6027591;23;114918;-82
2023/01/09 02:11:57;;;;;;;21.98;13.52;;;5.40;69.10;;;;;;6075320;23;114445;-83
2023/01/09 02:14:27;;;;;;;17.00;11.07;;;5.50;69.00;;;;;;6051630;23;115117;-83
2023/01/09 02:17:26;;;;;;;13.65;10.07;;;5.60;69.00;;;;;;6002458;23;114754;-83
2023/01/09 02:20:12;;;;;;;12.60;8.43;;;5.80;68.90;;;;;;6051107;23;114680;-83
2023/01/09 02:23:19;;;;;;;11.13;7.63;;;5.90;69.00;;;;;;6052599;23;114584;-83
2023/01/09 02:26:38;;;;;;;12.27;7.82;;;6.20;68.80;;;;;;6054022;23;118341;-83
2023/01/09 02:29:36;;;;;;;13.63;7.75;;;6.20;68.60;;;;;;6061241;23;114656;-83
2023/01/09 02:32:49;;;;;;;12.38;8.63;;;6.40;68.50;;;;;;6051180;23;115303;-83
2023/01/09 02:35:58;;;;;;;12.88;8.50;;;6.50;68.40;;;;;;6046023;23;114635;-83
2023/01/09 02:38:39;;;;;;;12.40;8.48;;;6.60;68.30;;;;;;6050341;23;115052;-83
2023/01/09 02:41:33;;;;;;;13.25;7.63;;;6.70;68.20;;;;;;6051650;23;114539;-83
2023/01/09 02:44:24;;;;;;;10.57;7.40;;;6.70;68.00;;;;;;6075268;23;115785;-82
2023/01/09 02:47:05;;;;;;;11.60;7.78;;;6.70;68.00;;;;;;6027293;23;114566;-82
2023/01/09 02:49:34;;;;;;;11.60;7.20;;;6.80;68.10;;;;;;6074638;23;115157;-82
2023/01/09 02:52:39;;;;;;;10.88;6.90;;;6.80;68.00;;;;;;6026476;23;114694;-82
2023/01/09 02:55:51;;;;;;;9.67;6.33;;;6.90;68.00;;;;;;6050429;23;115040;-82
2023/01/09 02:58:45;;;;;;;9.20;6.82;;;7.00;67.80;;;;;;6029165;23;114467;-83
2023/01/09 03:01:55;;;;;;;10.40;7.10;;;7.00;67.80;;;;;;6069694;23;115020;-82
2023/01/09 03:04:57;;;;;;;10.63;7.28;;;7.10;67.80;;;;;;6038330;23;118225;-83
2023/01/09 03:07:41;;;;;;;9.70;7.22;;;7.10;67.80;;;;;;6050801;23;114423;-83
2023/01/09 03:10:19;;;;;;;10.65;7.25;;;7.10;67.90;;;;;;6050860;23;115076;-82
2023/01/09 03:12:51;;;;;;;8.98;6.93;;;7.20;67.80;;;;;;6051068;23;115334;-83
2023/01/09 03:15:21;;;;;;;9.25;6.78;;;7.20;67.80;;;;;;6051282;23;117171;-83
2023/01/09 03:17:48;;;;;;;10.88;7.15;;;7.20;67.80;;;;;;6028098;23;114472;-83
2023/01/09 03:20:20;;;;;;;10.10;7.45;;;7.20;67.70;;;;;;6027614;23;114418;-81
2023/01/09 03:22:58;;;;;;;9.50;7.10;;;7.30;67.70;;;;;;6050351;23;117366;-82
2023/01/09 03:25:26;;;;;;;9.77;7.38;;;7.40;67.70;;;;;;6074442;23;114731;-82
2023/01/09 03:28:05;;;;;;;10.43;7.80;;;7.40;67.70;;;;;;6075411;23;114566;-82
2023/01/09 03:30:33;;;;;;;9.13;6.63;;;7.50;67.80;;;;;;6052113;23;114476;-82
2023/01/09 03:33:01;;;;;;;8.75;7.05;;;7.50;67.80;;;;;;6050911;23;115115;-82
2023/01/09 03:35:28;;;;;;;12.13;7.95;;;7.50;67.90;;;;;;6026748;23;114747;-82
2023/01/09 03:37:55;;;;;;;10.55;7.55;;;7.50;67.90;;;;;;6076580;23;114656;-82
2023/01/09 03:40:25;;;;;;;11.60;7.93;;;7.50;68.00;;;;;;6076632;23;114560;-83
2023/01/09 03:42:52;;;;;;;11.75;7.97;;;7.60;67.90;;;;;;6075342;23;115087;-82
2023/01/09 03:45:19;;;;;;;9.55;7.57;;;7.60;67.80;;;;;;6074911;23;114604;-82
2023/01/09 03:47:47;;;;;;;10.63;7.95;;;7.70;67.70;;;;;;6051804;23;114743;-82
2023/01/09 03:50:14;;;;;;;11.93;8.43;;;7.70;67.70;;;;;;6053385;23;114392;-83
2023/01/09 03:52:42;;;;;;;13.15;8.60;;;7.70;67.60;;;;;;6075085;23;115514;-82
2023/01/09 03:55:09;;;;;;;10.68;8.10;;;7.70;67.60;;;;;;6050983;23;114639;-82
2023/01/09 03:57:36;;;;;;;13.20;8.90;;;7.70;67.50;;;;;;6051806;23;114533;-82
2023/01/09 04:00:04;;;;;;;10.45;7.93;;;7.70;67.50;;;;;;6051596;23;114457;-81
2023/01/09 04:02:38;;;;;;;11.55;8.05;;;7.80;67.40;;;;;;6074197;23;115008;-82
2023/01/09 04:05:08;;;;;;;10.10;7.45;;;7.80;67.40;;;;;;6051025;23;114770;-82
2023/01/09 04:07:35;;;;;;;10.57;7.63;;;7.80;67.30;;;;;;6053426;23;114370;-83
2023/01/09 04:10:03;;;;;;;10.43;7.90;;;7.80;67.30;;;;;;6053493;23;114512;-83
2023/01/09 04:12:32;;;;;;;9.00;6.85;;;7.80;67.40;;;;;;6055204;23;114821;-83
2023/01/09 04:14:59;;;;;;;11.55;7.80;;;7.90;67.40;;;;;;6063116;23;115763;-84
2023/01/09 04:17:26;;;;;;;11.05;7.63;;;7.90;67.40;;;;;;6058320;23;115990;-83
2023/01/09 04:19:54;;;;;;;10.23;7.43;;;7.90;67.40;;;;;;6054212;23;115235;-83
2023/01/09 04:22:21;;;;;;;11.30;8.48;;;8.00;67.30;;;;;;6075173;23;115620;-83
2023/01/09 04:24:48;;;;;;;13.45;9.13;;;7.90;67.20;;;;;;6052597;23;114644;-83
2023/01/09 04:27:15;;;;;;;12.38;8.52;;;8.00;67.20;;;;;;6051793;23;114535;-83
2023/01/09 04:29:42;;;;;;;11.20;8.30;;;8.00;67.20;;;;;;6054148;23;114410;-84
2023/01/09 04:32:09;;;;;;;11.30;8.20;;;8.00;67.10;;;;;;6075377;23;115050;-83
2023/01/09 04:34:37;;;;;;;11.77;8.35;;;8.00;67.10;;;;;;6052141;23;115131;-83
2023/01/09 04:37:04;;;;;;;12.38;8.18;;;8.00;67.10;;;;;;6076101;23;114522;-83
2023/01/09 04:39:32;;;;;;;12.85;8.27;;;7.90;67.20;;;;;;6075413;23;114975;-83
2023/01/09 04:41:59;;;;;;;13.23;8.30;;;7.90;67.30;;;;;;6050824;23;115214;-83
2023/01/09 04:44:26;;;;;;;13.57;10.45;;;8.00;67.30;;;;;;6050932;23;114941;-83
2023/01/09 04:46:55;;;;;;;12.80;8.95;;;8.00;67.40;;;;;;6051785;23;114926;-83
2023/01/09 04:49:22;;;;;;;12.73;8.60;;;8.00;67.40;;;;;;6075845;23;114736;-83
2023/01/09 04:51:50;;;;;;;10.82;7.68;;;8.00;67.40;;;;;;6052221;23;114997;-82
2023/01/09 04:54:17;;;;;;;14.77;8.32;;;8.10;67.50;;;;;;6074934;23;114604;-83
2023/01/09 04:56:44;;;;;;;13.35;8.45;;;8.10;67.50;;;;;;6051785;23;114484;-82
2023/01/09 04:59:11;;;;;;;11.48;8.50;;;8.20;67.50;;;;;;6051343;23;114819;-83
2023/01/09 05:01:39;;;;;;;11.52;7.78;;;8.20;67.40;;;;;;6074292;23;115276;-82
2023/01/09 05:04:06;;;;;;;10.60;7.28;;;8.20;67.30;;;;;;6050638;23;114653;-83
2023/01/09 05:06:34;;;;;;;11.65;8.20;;;8.20;67.20;;;;;;6052697;23;114455;-82
2023/01/09 05:09:01;;;;;;;10.30;7.38;;;8.30;67.20;;;;;;6026800;23;114467;-83
2023/01/09 05:11:29;;;;;;;12.48;8.52;;;8.30;67.10;;;;;;6050092;23;115651;-83
2023/01/09 05:13:56;;;;;;;10.43;7.85;;;8.40;67.10;;;;;;6074825;23;114813;-83
2023/01/09 05:16:25;;;;;;;13.35;8.35;;;8.30;67.00;;;;;;6053196;23;114609;-83
2023/01/09 05:18:55;;;;;;;10.45;7.55;;;8.40;67.10;;;;;;6076106;23;114450;-83
2023/01/09 05:21:26;;;;;;;9.48;7.03;;;8.40;67.00;;;;;;6051798;23;116183;-83
2023/01/09 05:23:53;;;;;;;11.77;6.97;;;8.50;67.10;;;;;;6049954;23;115124;-82
2023/01/09 05:26:23;;;;;;;7.55;5.50;;;8.50;66.90;;;;;;6026733;23;114356;-83
2023/01/09 05:28:51;;;;;;;8.70;5.80;;;8.50;66.60;;;;;;6027949;23;114434;-83
2023/01/09 05:31:20;;;;;;;8.80;5.90;;;8.50;66.60;;;;;;6051146;23;115802;-83
2023/01/09 05:33:47;;;;;;;6.57;4.93;;;8.50;66.50;;;;;;6050791;23;114750;-83
2023/01/09 05:36:14;;;;;;;8.60;5.63;;;8.50;66.50;;;;;;6027104;23;115400;-84
2023/01/09 05:38:42;;;;;;;7.65;5.07;;;8.50;66.40;;;;;;6075892;23;114402;-82
2023/01/09 05:41:09;;;;;;;6.13;4.63;;;8.60;66.40;;;;;;6051864;23;115016;-82
2023/01/09 05:43:36;;;;;;;7.65;5.13;;;8.60;66.40;;;;;;6050409;23;116995;-83
2023/01/09 05:46:04;;;;;;;7.22;4.88;;;8.60;66.40;;;;;;6053316;23;115190;-82
2023/01/09 05:48:31;;;;;;;7.25;3.33;;;8.60;66.40;;;;;;6075433;23;114786;-82
2023/01/09 05:50:58;;;;;;;5.38;3.33;;;8.60;66.20;;;;;;6073813;23;115028;-82
2023/01/09 05:53:25;;;;;;;6.55;4.20;;;8.60;66.20;;;;;;6024865;23;114781;-83
2023/01/09 05:55:52;;;;;;;6.75;3.58;;;8.60;66.20;;;;;;6051219;23;114745;-83
2023/01/09 05:58:20;;;;;;;5.95;3.55;;;8.70;66.10;;;;;;6053232;23;114543;-83
2023/01/09 06:00:48;;;;;;;7.95;3.63;;;8.70;66.10;;;;;;6057011;23;115205;-83
2023/01/09 06:03:16;;;;;;;5.38;3.88;;;8.70;66.00;;;;;;6079297;23;114637;-83
2023/01/09 06:05:43;;;;;;;7.60;3.45;;;8.60;66.00;;;;;;6053103;23;114854;-84
2023/01/09 06:08:11;;;;;;;6.63;3.40;;;8.70;65.80;;;;;;6053710;23;114381;-83
2023/01/09 06:10:38;;;;;;;4.93;3.00;;;8.70;65.80;;;;;;6074345;23;114974;-84
2023/01/09 06:13:06;;;;;;;5.85;3.10;;;8.70;65.70;;;;;;6044623;23;114703;-83
2023/01/09 06:15:33;;;;;;;6.85;3.33;;;8.70;65.70;;;;;;6052159;23;114334;-83
2023/01/09 06:18:03;;;;;;;5.53;2.70;;;8.70;65.80;;;;;;6051532;23;114727;-84
2023/01/09 06:20:31;;;;;;;4.82;2.95;;;8.70;65.70;;;;;;6050327;23;116305;-83
2023/01/09 06:22:58;;;;;;;4.75;2.72;;;8.70;65.40;;;;;;6074024;23;114633;-83
2023/01/09 06:25:25;;;;;;;5.30;2.17;;;8.70;65.40;;;;;;6051757;23;114694;-83
2023/01/09 06:27:52;;;;;;;4.47;1.83;;;8.70;65.40;;;;;;6050740;23;114503;-83
2023/01/09 06:30:20;;;;;;;3.70;1.80;;;8.70;65.20;;;;;;6051229;23;114972;-83
2023/01/09 06:32:48;;;;;;;3.58;1.73;;;8.70;65.20;;;;;;6051696;23;114666;-83
2023/01/09 06:35:19;;;;;;;3.47;2.20;;;8.70;65.20;;;;;;6052537;23;114553;-83
2023/01/09 06:37:48;;;;;;;3.27;1.87;;;8.70;65.10;;;;;;6051063;23;114861;-83
2023/01/09 06:40:17;;;;;;;4.47;1.67;;;8.70;65.10;;;;;;6025086;23;116192;-82
2023/01/09 06:42:47;;;;;;;3.25;1.45;;;8.70;65.00;;;;;;6051839;23;115235;-82
2023/01/09 06:45:14;;;;;;;2.90;1.63;;;8.70;64.90;;;;;;6051470;23;114643;-83
2023/01/09 06:47:42;;;;;;;3.10;1.73;;;8.70;64.90;;;;;;6075189;23;114615;-83
2023/01/09 06:50:11;;;;;;;5.22;1.73;;;8.70;65.00;;;;;;6050469;23;114953;-83
2023/01/09 06:52:39;;;;;;;6.38;2.95;;;8.70;64.90;;;;;;6050444;23;115169;-84
2023/01/09 06:55:07;;;;;;;2.65;1.55;;;8.70;65.40;;;;;;6075627;23;114339;-83
2023/01/09 06:57:34;;;;;;;3.67;2.28;;;8.80;65.20;;;;;;6052016;23;114353;-84
2023/01/09 07:00:02;;;;;;;3.20;1.63;;;8.80;65.40;;;;;;6074550;23;115043;-84
2023/01/09 07:02:29;;;;;;;3.13;1.58;;;8.80;65.70;;;;;;6050099;23;114644;-84
2023/01/09 07:05:00;;;;;;;3.67;1.70;;;8.80;65.30;;;;;;6052592;23;114718;-84
2023/01/09 07:07:27;;;;;;;1.98;1.00;;;8.80;65.30;;;;;;6052645;23;114545;-83
2023/01/09 07:09:54;;;;;;;2.25;1.35;;;8.80;64.90;;;;;;6021920;23;116742;-84
2023/01/09 07:12:22;;;;;;;2.10;1.10;;;8.90;64.70;;;;;;6072834;23;115124;-83
2023/01/09 07:14:50;;;;;;;2.78;1.33;;;8.90;64.60;;;;;;6052099;23;114807;-83
2023/01/09 07:17:17;;;;;;;2.08;1.20;;;8.90;64.50;;;;;;6073770;23;114293;-83
2023/01/09 07:19:45;;;;;;;2.20;1.15;;;8.90;64.50;;;;;;6049462;23;116562;-83
2023/01/09 07:22:13;;;;;;;3.35;1.63;;;8.80;64.60;;;;;;6073516;23;115300;-84
2023/01/09 07:24:40;;;;;;;2.95;1.70;;;8.80;64.80;;;;;;6050599;23;114447;-84
2023/01/09 07:27:09;;;;;;;2.15;1.17;;;8.80;64.80;;;;;;6074268;23;115054;-84
2023/01/09 07:29:36;;;;;;;3.38;1.50;;;8.80;64.70;;;;;;6050194;23;116418;-83
2023/01/09 07:32:03;;;;;;;2.45;1.25;;;8.80;64.80;;;;;;6049877;23;114542;-84
2023/01/09 07:34:31;;;;;;;4.78;2.03;;;8.80;64.50;;;;;;6050224;23;114703;-83
2023/01/09 07:36:58;;;;;;;3.78;2.08;;;8.80;64.60;;;;;;6050973;23;115465;-83
2023/01/09 07:39:28;;;;;;;2.38;1.40;;;8.80;64.70;;;;;;6073703;23;115051;-84
2023/01/09 07:41:55;;;;;;;2.10;1.15;;;8.80;64.70;;;;;;6026064;23;114579;-84
2023/01/09 07:44:23;;;;;;;3.72;1.42;;;8.80;64.50;;;;;;6050268;23;114726;-84
2023/01/09 07:46:50;;;;;;;3.15;2.03;;;8.90;64.30;;;;;;6053414;23;114486;-82
2023/01/09 07:49:19;;;;;;;3.10;1.80;;;8.90;64.30;;;;;;6056207;23;116504;-82
2023/01/09 07:51:47;;;;;;;3.75;2.50;;;8.90;64.30;;;;;;6087263;23;114485;-83
2023/01/09 07:54:14;;;;;;;4.85;3.17;;;9.00;64.30;;;;;;6055855;23;114474;-82
2023/01/09 07:56:41;;;;;;;4.45;3.70;;;9.00;64.30;;;;;;6076193;23;114335;-82
2023/01/09 07:59:11;;;;;;;4.10;2.55;;;9.10;64.20;;;;;;6052464;23;115169;-82
2023/01/09 08:01:38;;;;;;;2.03;1.10;;;9.20;64.10;;;;;;6027449;23;115170;-82
2023/01/09 08:04:06;;;;;;;2.33;0.70;;;9.20;63.60;;;;;;6076658;23;114688;-84
2023/01/09 08:06:33;;;;;;;2.83;1.42;;;9.20;63.40;;;;;;6052693;23;114405;-84
2023/01/09 08:09:00;;;;;;;2.05;1.20;;;9.20;63.20;;;;;;6052789;23;114429;-84
2023/01/09 08:11:28;;;;;;;2.42;1.00;;;9.30;63.10;;;;;;6051703;23;114572;-84
2023/01/09 08:13:57;;;;;;;2.17;1.15;;;9.30;63.00;;;;;;6052327;23;114224;-84
2023/01/09 08:16:24;;;;;;;2.90;1.30;;;9.30;62.30;;;;;;6053559;23;114767;-83
2023/01/09 08:18:52;;;;;;;3.65;1.70;;;9.30;62.50;;;;;;6026140;23;118266;-84
2023/01/09 08:21:19;;;;;;;2.65;1.35;;;9.30;62.40;;;;;;6052602;23;114615;-83
2023/01/09 08:23:46;;;;;;;2.35;1.10;;;9.40;62.30;;;;;;6052330;23;114492;-85
2023/01/09 08:26:13;;;;;;;4.00;1.38;;;9.40;62.30;;;;;;6051764;23;115103;-84
2023/01/09 08:28:44;;;;;;;2.47;1.35;;;9.40;62.20;;;;;;6053040;23;115796;-84
2023/01/09 08:31:11;;;;;;;2.10;1.00;;;9.40;62.30;;;;;;6052957;23;115404;-82
2023/01/09 08:33:39;;;;;;;1.92;0.90;;;9.40;62.30;;;;;;6076463;23;115029;-82
2023/01/09 08:36:07;;;;;;;2.65;1.05;;;9.40;62.00;;;;;;6052242;23;114632;-83
2023/01/09 08:38:35;;;;;;;2.35;0.80;;;9.40;61.90;;;;;;6075284;23;115091;-83
2023/01/09 08:47:04;;;;;;;2.10;1.00;;;9.40;61.60;;;;;;6052700;23;114560;-83
2023/01/09 08:49:24;;;;;;;2.08;1.00;;;9.30;61.70;;;;;;6050821;23;115162;-84
2023/01/09 08:51:51;;;;;;;3.03;1.42;;;9.30;61.90;;;;;;6052261;23;114876;-83
2023/01/09 08:54:19;;;;;;;2.50;1.50;;;9.40;61.90;;;;;;6053310;23;114436;-84
2023/01/09 08:56:46;;;;;;;2.47;1.20;;;9.40;61.90;;;;;;6076171;23;114708;-83
2023/01/09 08:59:14;;;;;;;2.28;1.00;;;9.40;61.90;;;;;;6050711;23;116304;-84
2023/01/09 09:01:42;;;;;;;1.98;1.10;;;9.40;61.90;;;;;;6052424;23;114552;-84
2023/01/09 09:04:10;;;;;;;2.50;1.17;;;9.40;62.00;;;;;;6053454;23;114679;-84
2023/01/09 09:06:37;;;;;;;3.08;1.20;;;9.40;62.10;;;;;;6051846;23;114777;-84
2023/01/09 09:09:05;;;;;;;2.30;1.10;;;9.40;62.10;;;;;;6001403;23;115493;-83
2023/01/09 09:11:33;;;;;;;3.10;1.13;;;9.30;62.10;;;;;;6051702;23;114649;-84
2023/01/09 09:14:00;;;;;;;1.48;0.93;;;9.40;62.30;;;;;;6027547;23;114656;-84
2023/01/09 09:16:28;;;;;;;2.25;0.98;;;9.30;62.50;;;;;;6053093;23;115188;-84
2023/01/09 09:18:55;;;;;;;1.67;1.00;;;9.30;62.80;;;;;;6075072;23;115107;-86
2023/01/09 09:21:22;;;;;;;2.03;0.68;;;9.30;63.00;;;;;;6051993;23;114639;-83
2023/01/09 09:23:51;;;;;;;2.15;1.33;;;9.20;63.10;;;;;;6050911;23;114401;-83
2023/01/09 09:26:18;;;;;;;2.60;1.25;;;9.20;63.50;;;;;;6052330;23;114744;-84
2023/01/09 09:28:48;;;;;;;2.05;0.90;;;9.20;63.60;;;;;;6074363;23;115029;-83
2023/01/09 09:31:17;;;;;;;2.22;1.17;;;9.20;63.70;;;;;;6074788;23;114989;-83
2023/01/09 09:33:44;;;;;;;2.08;1.10;;;9.20;63.80;;;;;;6051915;23;114608;-83
2023/01/09 09:36:12;;;;;;;3.70;1.50;;;9.10;63.90;;;;;;6052457;23;114434;-82
2023/01/09 09:38:39;;;;;;;2.72;1.30;;;9.10;63.80;;;;;;6074309;23;118168;-83
2023/01/09 09:44:45;;;;;;;2.17;0.90;;;9.10;63.80;;;;;;6051325;23;114769;-83
2023/01/09 09:47:40;;;;;;;1.67;0.82;;;9.10;63.60;;;;;;6063725;23;114503;-83
2023/01/09 09:50:43;;;;;;;2.22;1.00;;;9.10;63.90;;;;;;6095180;23;114177;-84
2023/01/09 09:53:23;;;;;;;2.38;1.40;;;9.10;63.80;;;;;;6033977;23;117606;-85
2023/01/09 09:55:56;;;;;;;1.75;0.80;;;9.10;63.80;;;;;;6074052;23;114678;-85
2023/01/09 09:59:16;;;;;;;2.55;1.10;;;9.10;63.70;;;;;;5998047;23;114788;-85
2023/01/09 10:02:18;;;;;;;1.75;0.82;;;9.10;63.70;;;;;;6068618;23;115128;-84
2023/01/09 10:04:50;;;;;;;2.25;1.25;;;9.10;63.80;;;;;;6069922;23;114635;-84
2023/01/09 10:07:26;;;;;;;3.03;1.50;;;9.10;63.90;;;;;;6027094;23;114706;-83
2023/01/09 10:10:00;;;;;;;4.40;1.70;;;9.20;64.00;;;;;;5979633;23;114491;-84
2023/01/09 10:12:33;;;;;;;2.30;1.23;;;9.20;64.10;;;;;;6025579;23;115161;-84
2023/01/09 10:15:28;;;;;;;4.53;1.30;;;9.20;64.10;;;;;;6074149;23;114741;-84
2023/01/09 10:18:19;;;;;;;1.88;0.93;;;9.20;64.10;;;;;;6074855;23;114417;-84
2023/01/09 10:20:58;;;;;;;2.58;1.33;;;9.20;64.20;;;;;;6075033;23;114893;-84
2023/01/09 10:23:48;;;;;;;2.60;1.50;;;9.20;64.20;;;;;;6049429;23;115236;-83
2023/01/09 10:26:28;;;;;;;2.15;1.00;;;9.10;64.30;;;;;;6050012;23;114615;-85
2023/01/09 10:29:36;;;;;;;1.75;1.00;;;9.20;64.30;;;;;;6050180;23;114624;-84
2023/01/09 10:32:30;;;;;;;1.95;0.90;;;9.20;64.20;;;;;;6052396;23;114661;-82
2023/01/09 10:35:23;;;;;;;2.63;1.30;;;9.20;64.20;;;;;;6025681;23;115601;-83
2023/01/09 10:37:52;;;;;;;2.17;1.10;;;9.20;64.40;;;;;;6049965;23;114673;-83
2023/01/09 10:40:34;;;;;;;1.70;0.90;;;9.20;64.50;;;;;;6003246;23;114447;-83
2023/01/09 10:43:06;;;;;;;1.83;1.00;;;9.20;64.60;;;;;;6050845;23;114423;-83
2023/01/09 10:45:52;;;;;;;2.58;1.30;;;9.20;64.70;;;;;;6002008;23;118398;-82
2023/01/09 10:48:35;;;;;;;2.90;1.45;;;9.20;64.70;;;;;;6074143;23;115014;-83
2023/01/09 10:51:11;;;;;;;3.17;1.20;;;9.20;64.90;;;;;;6050946;23;115096;-83
2023/01/09 10:53:40;;;;;;;2.03;1.10;;;9.20;64.90;;;;;;6026895;23;114915;-82
2023/01/09 10:56:16;;;;;;;1.83;1.10;;;9.20;64.90;;;;;;6049108;23;115108;-82
2023/01/09 10:58:43;;;;;;;2.20;1.10;;;9.20;64.90;;;;;;6026400;23;114801;-83
2023/01/09 11:01:10;;;;;;;3.53;1.60;;;9.20;64.90;;;;;;6050300;23;115171;-83
2023/01/09 11:03:37;;;;;;;1.73;0.90;;;9.20;65.00;;;;;;6050327;23;114642;-82
2023/01/09 11:06:38;;;;;;;1.88;1.10;;;9.20;64.80;;;;;;6050677;23;114973;-83
2023/01/09 11:09:08;;;;;;;2.92;1.33;;;9.30;64.70;;;;;;5960646;23;117029;-83
2023/01/09 11:11:37;;;;;;;2.13;1.10;;;9.20;64.70;;;;;;6025667;23;114716;-83
2023/01/09 11:14:26;;;;;;;2.88;1.48;;;9.30;64.60;;;;;;6051297;23;114639;-83
2023/01/09 11:16:55;;;;;;;2.88;1.30;;;9.20;64.70;;;;;;6026027;23;115205;-82
2023/01/09 11:19:25;;;;;;;2.13;1.20;;;9.30;64.70;;;;;;6051121;23;114823;-83
2023/01/09 11:22:17;;;;;;;1.83;1.00;;;9.30;64.70;;;;;;6049828;23;114861;-83
2023/01/09 11:24:44;;;;;;;3.03;1.20;;;9.40;64.50;;;;;;6026439;23;114418;-83
2023/01/09 11:27:22;;;;;;;2.35;1.00;;;9.40;64.50;;;;;;6048329;23;115636;-83
2023/01/09 11:30:26;;;;;;;2.20;1.20;;;9.40;64.30;;;;;;6049529;23;115198;-84
2023/01/09 11:32:57;;;;;;;2.88;1.35;;;9.50;64.30;;;;;;6050061;23;115431;-83
2023/01/09 11:35:31;;;;;;;2.30;1.23;;;9.40;64.30;;;;;;6051777;23;114478;-84
2023/01/09 11:38:15;;;;;;;2.63;0.80;;;9.40;64.30;;;;;;6050983;23;115038;-83
2023/01/09 11:40:53;;;;;;;2.85;1.15;;;9.40;64.10;;;;;;6028088;23;114989;-82
2023/01/09 11:43:37;;;;;;;3.55;1.10;;;9.50;64.10;;;;;;6029160;23;114370;-82
2023/01/09 11:46:12;;;;;;;2.28;1.10;;;9.50;64.20;;;;;;6036338;23;115155;-83
2023/01/09 11:48:58;;;;;;;2.50;1.00;;;9.50;64.10;;;;;;6045725;23;114316;-83
2023/01/09 11:51:29;;;;;;;2.40;1.27;;;9.50;64.20;;;;;;6078750;23;114521;-83
2023/01/09 11:54:24;;;;;;;3.03;1.20;;;9.50;64.30;;;;;;6078254;23;114905;-83
2023/01/09 11:56:56;;;;;;;2.67;1.00;;;9.50;64.20;;;;;;6075898;23;114790;-83
2023/01/09 11:59:27;;;;;;;2.05;1.00;;;9.50;64.20;;;;;;6052068;23;115091;-83
2023/01/09 12:02:16;;;;;;;2.28;0.90;;;9.60;64.20;;;;;;6050584;23;114507;-82
2023/01/09 12:05:00;;;;;;;3.65;1.05;;;9.50;64.10;;;;;;6052370;23;115371;-83
2023/01/09 12:08:18;;;;;;;2.92;1.48;;;9.50;64.20;;;;;;6052300;23;114735;-82
2023/01/09 12:11:20;;;;;;;3.13;1.30;;;9.60;64.20;;;;;;6050440;23;117200;-83
2023/01/09 12:14:16;;;;;;;3.03;1.50;;;9.50;64.60;;;;;;6046729;23;114790;-82
2023/01/09 12:17:08;;;;;;;2.20;1.10;;;9.50;64.80;;;;;;6076196;23;114519;-85
2023/01/09 12:19:52;;;;;;;2.25;1.10;;;9.40;64.90;;;;;;6051825;23;114590;-81
2023/01/09 12:22:43;;;;;;;3.38;0.98;;;9.40;65.00;;;;;;6075184;23;115237;-83
2023/01/09 12:25:19;;;;;;;2.22;1.20;;;9.40;65.00;;;;;;6050545;23;114770;-83
2023/01/09 12:28:03;;;;;;;2.53;1.05;;;9.40;65.00;;;;;;6075906;23;115052;-83
2023/01/09 12:30:51;;;;;;;2.63;1.30;;;9.30;65.00;;;;;;6076356;23;115069;-83
2023/01/09 12:33:58;;;;;;;1.88;1.00;;;9.30;65.10;;;;;;6074650;23;116715;-83
2023/01/09 12:36:43;;;;;;;1.95;1.20;;;9.40;65.00;;;;;;6050420;23;114671;-83
2023/01/09 12:39:31;;;;;;;2.30;1.30;;;9.30;65.20;;;;;;6004644;23;115004;-83
2023/01/09 12:42:43;;;;;;;4.78;1.85;;;9.30;65.10;;;;;;6051816;23;115262;-82
2023/01/09 12:45:42;;;;;;;2.35;1.08;;;9.30;65.20;;;;;;6017427;23;115492;-82
2023/01/09 12:49:02;;;;;;;2.85;1.48;;;9.30;65.30;;;;;;6070225;23;114611;-82
2023/01/09 12:52:08;;;;;;;2.42;1.40;;;9.40;65.20;;;;;;6052819;23;114624;-83
2023/01/09 12:55:01;;;;;;;2.22;1.20;;;9.30;65.30;;;;;;6027096;23;114722;-83
2023/01/09 12:57:35;;;;;;;1.88;1.00;;;9.40;65.00;;;;;;6073618;23;114967;-83
2023/01/09 13:00:40;;;;;;;2.72;1.38;;;9.30;65.10;;;;;;6026129;23;115615;-83
2023/01/09 13:03:19;;;;;;;3.75;1.90;;;9.30;65.10;;;;;;6062707;23;114657;-82
2023/01/09 13:05:50;;;;;;;3.85;2.10;;;9.30;65.10;;;;;;6052926;23;114345;-82
2023/01/09 13:08:23;;;;;;;3.60;1.77;;;9.30;65.20;;;;;;6025710;23;115086;-82
2023/01/09 13:10:52;;;;;;;2.97;1.65;;;9.30;65.20;;;;;;6049283;23;115534;-83
2023/01/09 13:13:37;;;;;;;3.75;1.90;;;9.30;65.20;;;;;;6050083;23;114492;-82
2023/01/09 13:16:09;;;;;;;3.38;2.00;;;9.30;65.20;;;;;;6051180;23;114571;-82
2023/01/09 13:19:04;;;;;;;2.95;1.75;;;9.30;65.30;;;;;;6026659;23;115552;-81
2023/01/09 13:21:31;;;;;;;3.80;2.05;;;9.30;65.30;;;;;;6051142;23;115780;-83
2023/01/09 13:24:28;;;;;;;4.05;2.17;;;9.20;65.50;;;;;;6051702;23;114892;-83
2023/01/09 13:27:20;;;;;;;3.63;2.10;;;9.30;65.60;;;;;;6073941;23;114666;-83
2023/01/09 13:30:23;;;;;;;3.65;1.92;;;9.30;65.60;;;;;;6026700;23;115152;-84